Time;durP1;ratioP1;P1;durP2;ratioP2;P2;SDS_P1;SDS_P2;PMS_P1;PMS_P2;Temp;Humidity;BMP_temperature;BMP_pressure;BME280_temperature;BME280_humidity;BME280_pressure;Samples;Min_cycle;Max_cycle;Signal;HPM_P1;HPM_P2
2022/04/09 00:00:23;;;;;;;4.03;2.00;;;;;;;;;;4450732;32;20391;-53
2022/04/09 00:02:49;;;;;;;4.72;2.42;;;;;;;;;;4450537;32;20243;-53
2022/04/09 00:05:15;;;;;;;8.43;3.35;;;;;;;;;;4454461;32;20301;-51
2022/04/09 00:07:42;;;;;;;4.82;1.85;;;;;;;;;;4449996;32;20244;-53
2022/04/09 00:10:09;;;;;;;4.22;2.12;;;;;;;;;;4449646;32;20301;-55
2022/04/09 00:12:34;;;;;;;5.20;2.25;;;;;;;;;;4449627;32;20248;-54
2022/04/09 00:15:00;;;;;;;7.47;3.95;;;;;;;;;;4449870;32;20323;-54
2022/04/09 00:17:26;;;;;;;7.22;2.83;;;;;;;;;;4449635;32;20220;-54
2022/04/09 00:19:52;;;;;;;5.03;1.90;;;;;;;;;;4449528;32;20712;-55
2022/04/09 00:22:18;;;;;;;3.97;1.60;;;;;;;;;;4449760;32;20327;-54
2022/04/09 00:24:43;;;;;;;3.95;2.15;;;;;;;;;;4449887;32;20336;-54
2022/04/09 00:27:09;;;;;;;7.12;2.65;;;;;;;;;;4463550;32;20624;-54
2022/04/09 00:29:34;;;;;;;5.03;2.05;;;;;;;;;;4458886;32;20712;-53
2022/04/09 00:32:00;;;;;;;4.57;1.92;;;;;;;;;;4457667;32;20252;-54
2022/04/09 00:34:25;;;;;;;4.25;2.10;;;;;;;;;;4464778;32;20810;-54
2022/04/09 00:36:51;;;;;;;5.90;2.00;;;;;;;;;;4465026;32;20280;-53
2022/04/09 00:39:16;;;;;;;4.43;1.48;;;;;;;;;;4465121;32;20292;-54
2022/04/09 00:41:47;;;;;;;4.62;2.12;;;;;;;;;;4464611;32;20347;-54
2022/04/09 00:44:22;;;;;;;3.67;1.50;;;;;;;;;;4464756;32;20337;-53
2022/04/09 00:46:48;;;;;;;4.93;2.08;;;;;;;;;;4463157;32;20238;-53
2022/04/09 00:49:15;;;;;;;9.00;2.80;;;;;;;;;;4464646;32;20577;-53
2022/04/09 00:51:43;;;;;;;4.45;2.25;;;;;;;;;;4465135;32;20600;-54
2022/04/09 00:54:11;;;;;;;5.87;1.90;;;;;;;;;;4465050;32;20215;-54
2022/04/09 00:56:38;;;;;;;9.15;2.95;;;;;;;;;;4463906;32;20876;-53
2022/04/09 00:59:06;;;;;;;10.13;4.85;;;;;;;;;;4464763;32;20219;-53
2022/04/09 01:01:36;;;;;;;6.93;2.90;;;;;;;;;;4464718;32;20708;-53
2022/04/09 01:04:10;;;;;;;7.57;3.30;;;;;;;;;;4457078;32;20374;-53
2022/04/09 01:06:37;;;;;;;7.93;2.97;;;;;;;;;;4448793;32;20697;-53
2022/04/09 01:09:07;;;;;;;7.32;3.78;;;;;;;;;;4449156;32;20357;-53
2022/04/09 01:11:33;;;;;;;6.20;3.45;;;;;;;;;;4448882;32;20699;-53
2022/04/09 01:13:59;;;;;;;6.53;3.25;;;;;;;;;;4449193;32;20584;-53
2022/04/09 01:16:28;;;;;;;11.10;3.50;;;;;;;;;;4448766;32;20217;-53
2022/04/09 01:19:03;;;;;;;9.77;3.62;;;;;;;;;;4448903;32;20224;-54
2022/04/09 01:21:29;;;;;;;8.25;3.28;;;;;;;;;;4451334;32;20263;-54
2022/04/09 01:23:55;;;;;;;6.78;2.92;;;;;;;;;;4463371;32;20697;-54
2022/04/09 01:26:21;;;;;;;9.65;3.58;;;;;;;;;;4464378;32;20227;-54
2022/04/09 01:28:48;;;;;;;7.28;3.65;;;;;;;;;;4463372;32;20212;-54
2022/04/09 01:31:14;;;;;;;3.80;2.67;;;;;;;;;;4447325;32;20622;-53
2022/04/09 01:33:40;;;;;;;3.85;2.70;;;;;;;;;;4448866;32;20418;-53
2022/04/09 01:36:06;;;;;;;4.37;2.00;;;;;;;;;;4448987;32;20303;-53
2022/04/09 01:38:34;;;;;;;6.80;3.10;;;;;;;;;;4448666;32;20287;-53
2022/04/09 01:40:59;;;;;;;6.15;3.10;;;;;;;;;;4447201;32;20322;-54
2022/04/09 01:43:25;;;;;;;4.32;2.72;;;;;;;;;;4449463;32;20291;-54
2022/04/09 01:45:50;;;;;;;5.68;3.08;;;;;;;;;;4447447;32;20291;-53
2022/04/09 01:48:15;;;;;;;5.53;3.05;;;;;;;;;;4449856;32;20325;-54
2022/04/09 01:50:41;;;;;;;7.45;3.90;;;;;;;;;;4448857;32;20310;-53
2022/04/09 01:53:06;;;;;;;8.07;3.60;;;;;;;;;;4448430;32;20224;-54
2022/04/09 01:55:32;;;;;;;9.73;3.35;;;;;;;;;;4448802;32;20284;-53
2022/04/09 01:57:58;;;;;;;8.77;4.22;;;;;;;;;;4448236;32;20617;-53
2022/04/09 02:00:24;;;;;;;8.07;3.65;;;;;;;;;;4448277;32;20336;-55
2022/04/09 02:02:51;;;;;;;12.63;2.90;;;;;;;;;;4446803;32;20300;-53
2022/04/09 02:05:16;;;;;;;12.50;2.97;;;;;;;;;;4452759;32;20335;-55
2022/04/09 02:07:42;;;;;;;6.93;2.90;;;;;;;;;;4449191;32;20415;-54
2022/04/09 02:10:09;;;;;;;10.83;3.37;;;;;;;;;;4451464;32;20331;-55
2022/04/09 02:12:35;;;;;;;6.28;2.58;;;;;;;;;;4451054;32;20239;-54
2022/04/09 02:15:03;;;;;;;10.32;3.35;;;;;;;;;;4451485;32;20617;-54
2022/04/09 02:17:28;;;;;;;8.63;3.75;;;;;;;;;;4450026;32;20281;-54
2022/04/09 02:19:54;;;;;;;21.65;10.80;;;;;;;;;;4467295;32;20324;-53
2022/04/09 02:22:20;;;;;;;31.83;15.25;;;;;;;;;;4466989;32;20220;-53
2022/04/09 02:24:46;;;;;;;20.90;11.75;;;;;;;;;;4467218;32;20681;-54
2022/04/09 02:27:12;;;;;;;26.93;10.60;;;;;;;;;;4466632;32;20298;-54
2022/04/09 02:29:38;;;;;;;13.15;6.72;;;;;;;;;;4460332;32;20279;-53
2022/04/09 02:32:05;;;;;;;9.18;5.32;;;;;;;;;;4459614;32;20235;-53
2022/04/09 02:34:31;;;;;;;12.23;6.87;;;;;;;;;;4466643;32;20638;-54
2022/04/09 02:36:56;;;;;;;7.35;4.28;;;;;;;;;;4467149;32;20323;-53
2022/04/09 02:39:22;;;;;;;9.80;4.90;;;;;;;;;;4466780;32;20394;-53
2022/04/09 02:41:50;;;;;;;7.60;3.97;;;;;;;;;;4465325;32;20613;-53
2022/04/09 02:44:16;;;;;;;11.02;3.45;;;;;;;;;;4456844;32;20216;-53
2022/04/09 02:46:42;;;;;;;16.62;4.37;;;;;;;;;;4451318;32;20299;-55
2022/04/09 02:49:07;;;;;;;7.57;3.63;;;;;;;;;;4451084;32;20334;-53
2022/04/09 02:51:33;;;;;;;8.80;3.77;;;;;;;;;;4451058;32;20197;-54
2022/04/09 02:53:58;;;;;;;10.00;5.27;;;;;;;;;;4451135;32;20236;-54
2022/04/09 02:56:24;;;;;;;30.98;12.25;;;;;;;;;;4451091;32;20227;-53
2022/04/09 02:58:49;;;;;;;16.62;6.95;;;;;;;;;;4450859;32;20217;-53
2022/04/09 03:01:14;;;;;;;12.70;5.12;;;;;;;;;;4450777;32;20310;-52
2022/04/09 03:03:40;;;;;;;12.10;5.37;;;;;;;;;;4450808;32;20216;-53
2022/04/09 03:06:05;;;;;;;15.05;6.03;;;;;;;;;;4450324;32;20318;-53
2022/04/09 03:08:31;;;;;;;9.48;5.45;;;;;;;;;;4450686;32;20339;-53
2022/04/09 03:10:56;;;;;;;8.50;4.55;;;;;;;;;;4450631;32;20346;-53
2022/04/09 03:13:22;;;;;;;8.93;3.40;;;;;;;;;;4450626;32;20327;-53
2022/04/09 03:15:47;;;;;;;13.30;4.10;;;;;;;;;;4450472;32;20314;-53
2022/04/09 03:18:13;;;;;;;6.75;3.35;;;;;;;;;;4449816;32;20588;-53
2022/04/09 03:20:38;;;;;;;4.57;2.57;;;;;;;;;;4450743;32;20286;-53
2022/04/09 03:23:04;;;;;;;4.40;2.45;;;;;;;;;;4451018;32;20691;-53
2022/04/09 03:25:29;;;;;;;8.87;3.50;;;;;;;;;;4450635;32;20264;-56
2022/04/09 03:27:54;;;;;;;8.07;3.27;;;;;;;;;;4450883;32;20220;-54
2022/04/09 03:30:20;;;;;;;12.63;4.30;;;;;;;;;;4450902;32;20304;-54
2022/04/09 03:32:46;;;;;;;7.80;4.00;;;;;;;;;;4463686;32;20358;-54
2022/04/09 03:35:12;;;;;;;8.23;4.10;;;;;;;;;;4466882;32;20282;-55
2022/04/09 03:37:38;;;;;;;7.20;4.17;;;;;;;;;;4466543;32;20212;-53
2022/04/09 03:40:05;;;;;;;12.37;4.80;;;;;;;;;;4466078;32;20305;-55
2022/04/09 03:42:31;;;;;;;12.87;4.57;;;;;;;;;;4465800;32;20554;-54
2022/04/09 03:44:56;;;;;;;11.40;5.33;;;;;;;;;;4451824;32;20284;-54
2022/04/09 03:47:22;;;;;;;10.43;4.83;;;;;;;;;;4451905;32;20895;-54
2022/04/09 03:49:47;;;;;;;13.33;3.77;;;;;;;;;;4450074;32;20283;-52
2022/04/09 03:52:13;;;;;;;12.40;4.73;;;;;;;;;;4450228;32;20205;-53
2022/04/09 03:54:39;;;;;;;11.47;4.57;;;;;;;;;;4451564;32;20486;-54
2022/04/09 03:57:05;;;;;;;9.90;4.80;;;;;;;;;;4450237;32;20222;-53
2022/04/09 03:59:30;;;;;;;13.02;4.55;;;;;;;;;;4449887;32;20767;-53
2022/04/09 04:01:56;;;;;;;7.07;4.17;;;;;;;;;;4450207;32;20196;-53
2022/04/09 04:04:22;;;;;;;10.83;4.83;;;;;;;;;;4453851;32;20363;-52
2022/04/09 04:06:48;;;;;;;9.60;4.53;;;;;;;;;;4453591;32;20665;-52
2022/04/09 04:09:16;;;;;;;12.83;5.03;;;;;;;;;;4449823;32;20239;-53
2022/04/09 04:11:45;;;;;;;15.97;5.97;;;;;;;;;;4461391;32;20321;-53
2022/04/09 04:14:11;;;;;;;9.43;4.77;;;;;;;;;;4465483;32;20249;-52
2022/04/09 04:16:37;;;;;;;10.93;4.60;;;;;;;;;;4465172;32;20726;-53
2022/04/09 04:19:03;;;;;;;13.50;5.33;;;;;;;;;;4465417;32;20254;-52
2022/04/09 04:21:29;;;;;;;12.67;5.70;;;;;;;;;;4465704;32;20224;-52
2022/04/09 04:23:55;;;;;;;22.20;6.53;;;;;;;;;;4465439;32;20251;-53
2022/04/09 04:26:20;;;;;;;8.57;5.37;;;;;;;;;;4464939;32;20521;-53
2022/04/09 04:28:48;;;;;;;17.92;8.38;;;;;;;;;;4462916;32;20262;-53
2022/04/09 04:31:16;;;;;;;20.43;6.93;;;;;;;;;;4452174;32;20220;-52
2022/04/09 04:33:41;;;;;;;14.63;7.10;;;;;;;;;;4465421;32;20310;-52
2022/04/09 04:36:07;;;;;;;20.43;6.63;;;;;;;;;;4465565;32;20263;-52
2022/04/09 04:38:32;;;;;;;14.30;7.10;;;;;;;;;;4464957;32;20227;-53
2022/04/09 04:40:59;;;;;;;12.57;6.50;;;;;;;;;;4462336;32;20718;-51
2022/04/09 04:43:24;;;;;;;10.37;6.07;;;;;;;;;;4458673;32;20225;-52
2022/04/09 04:45:50;;;;;;;14.50;5.80;;;;;;;;;;4446039;32;20645;-52
2022/04/09 04:48:15;;;;;;;11.90;5.63;;;;;;;;;;4448513;32;20335;-52
2022/04/09 04:50:40;;;;;;;9.23;5.67;;;;;;;;;;4446944;32;20307;-52
2022/04/09 04:53:07;;;;;;;16.37;6.00;;;;;;;;;;4447001;32;20664;-54
2022/04/09 04:55:35;;;;;;;20.47;8.37;;;;;;;;;;4445584;32;20327;-54
2022/04/09 04:58:01;;;;;;;16.05;8.43;;;;;;;;;;4445866;32;20250;-54
2022/04/09 05:00:27;;;;;;;27.30;10.65;;;;;;;;;;4449092;32;20271;-54
2022/04/09 05:02:52;;;;;;;20.70;10.48;;;;;;;;;;4449031;32;20216;-54
2022/04/09 05:05:18;;;;;;;23.00;9.73;;;;;;;;;;4457631;32;20307;-54
2022/04/09 05:07:52;;;;;;;21.33;8.07;;;;;;;;;;4458842;32;20604;-54
2022/04/09 05:10:22;;;;;;;17.13;7.73;;;;;;;;;;4463038;32;20229;-54
2022/04/09 05:12:49;;;;;;;16.93;7.33;;;;;;;;;;4463529;32;20521;-54
2022/04/09 05:15:16;;;;;;;16.20;8.03;;;;;;;;;;4464354;32;20665;-55
2022/04/09 05:17:42;;;;;;;16.90;9.65;;;;;;;;;;4464424;32;20456;-54
2022/04/09 05:20:10;;;;;;;21.30;10.00;;;;;;;;;;4464400;32;20204;-54
2022/04/09 05:22:38;;;;;;;18.40;8.13;;;;;;;;;;4464383;32;20227;-54
2022/04/09 05:25:04;;;;;;;18.40;8.40;;;;;;;;;;4464187;32;20230;-54
2022/04/09 05:27:30;;;;;;;13.30;7.93;;;;;;;;;;4462856;32;20224;-54
2022/04/09 05:29:56;;;;;;;20.35;9.40;;;;;;;;;;4455684;32;20276;-54
2022/04/09 05:32:21;;;;;;;19.40;11.00;;;;;;;;;;4458836;32;20751;-54
2022/04/09 05:34:47;;;;;;;21.60;12.35;;;;;;;;;;4463769;32;20222;-54
2022/04/09 05:37:13;;;;;;;20.35;11.65;;;;;;;;;;4464085;32;20264;-54
2022/04/09 05:39:38;;;;;;;19.02;11.23;;;;;;;;;;4464073;32;20342;-54
2022/04/09 05:42:04;;;;;;;21.50;12.77;;;;;;;;;;4463001;32;20196;-54
2022/04/09 05:44:31;;;;;;;23.30;11.50;;;;;;;;;;4463648;32;20329;-56
2022/04/09 05:46:56;;;;;;;13.20;7.95;;;;;;;;;;4461213;32;20233;-53
2022/04/09 05:49:22;;;;;;;17.48;8.48;;;;;;;;;;4448673;32;20839;-53
2022/04/09 05:51:48;;;;;;;22.70;11.37;;;;;;;;;;4448427;32;20260;-53
2022/04/09 05:54:13;;;;;;;19.80;11.27;;;;;;;;;;4448487;32;20228;-54
2022/04/09 05:56:39;;;;;;;21.10;10.37;;;;;;;;;;4448426;32;20227;-53
2022/04/09 05:59:04;;;;;;;12.23;6.60;;;;;;;;;;4448400;32;20235;-53
2022/04/09 06:01:30;;;;;;;18.00;8.10;;;;;;;;;;4447340;32;20663;-53
2022/04/09 06:03:57;;;;;;;11.37;6.80;;;;;;;;;;4448019;32;20342;-53
2022/04/09 06:06:23;;;;;;;13.93;6.63;;;;;;;;;;4452434;32;20359;-53
2022/04/09 06:08:48;;;;;;;18.40;5.82;;;;;;;;;;4448120;32;20633;-52
2022/04/09 06:11:17;;;;;;;15.43;6.77;;;;;;;;;;4447907;32;20358;-53
2022/04/09 06:13:42;;;;;;;13.62;7.53;;;;;;;;;;4448438;32;20762;-52
2022/04/09 06:16:09;;;;;;;15.70;8.38;;;;;;;;;;4448147;32;20470;-52
2022/04/09 06:18:38;;;;;;;12.10;8.68;;;;;;;;;;4447885;32;20514;-52
2022/04/09 06:21:04;;;;;;;15.35;8.77;;;;;;;;;;4448074;32;20205;-52
2022/04/09 06:23:30;;;;;;;6.00;3.60;;;;;;;;;;4448228;32;20236;-53
2022/04/09 06:25:55;;;;;;;9.05;3.42;;;;;;;;;;4448592;32;20289;-53
2022/04/09 06:28:21;;;;;;;12.70;3.95;;;;;;;;;;4448165;32;20229;-51
2022/04/09 06:30:46;;;;;;;11.00;3.50;;;;;;;;;;4448140;32;20309;-52
2022/04/09 06:33:12;;;;;;;7.55;4.25;;;;;;;;;;4463257;32;20653;-52
2022/04/09 06:35:37;;;;;;;15.50;4.37;;;;;;;;;;4463555;32;20270;-53
2022/04/09 06:38:02;;;;;;;8.50;4.33;;;;;;;;;;4463131;32;20295;-53
2022/04/09 06:40:28;;;;;;;8.32;3.85;;;;;;;;;;4461588;32;20321;-55
2022/04/09 06:42:54;;;;;;;9.93;3.37;;;;;;;;;;4460535;32;20270;-53
2022/04/09 06:45:19;;;;;;;4.87;3.20;;;;;;;;;;4445764;32;20331;-54
2022/04/09 06:47:47;;;;;;;9.70;4.37;;;;;;;;;;4452531;32;20248;-53
2022/04/09 06:50:13;;;;;;;10.23;3.47;;;;;;;;;;4462338;32;20325;-54
2022/04/09 06:52:40;;;;;;;3.22;2.33;;;;;;;;;;4459268;32;20270;-54
2022/04/09 06:55:06;;;;;;;13.10;4.22;;;;;;;;;;4449302;32;20239;-53
2022/04/09 06:57:32;;;;;;;9.00;2.53;;;;;;;;;;4448924;32;20225;-53
2022/04/09 07:00:04;;;;;;;7.22;2.97;;;;;;;;;;4457427;32;20306;-52
2022/04/09 07:02:29;;;;;;;5.10;2.65;;;;;;;;;;4465125;32;20285;-53
2022/04/09 07:04:54;;;;;;;10.15;3.75;;;;;;;;;;4461793;32;20291;-53
2022/04/09 07:07:24;;;;;;;6.90;2.83;;;;;;;;;;4450526;32;20220;-53
2022/04/09 07:09:50;;;;;;;19.17;3.70;;;;;;;;;;4449952;32;20589;-53
2022/04/09 07:12:16;;;;;;;5.22;2.72;;;;;;;;;;4450238;32;20201;-52
2022/04/09 07:14:42;;;;;;;5.45;2.25;;;;;;;;;;4451302;32;20837;-52
2022/04/09 07:17:08;;;;;;;3.62;2.22;;;;;;;;;;4450516;32;20265;-52
2022/04/09 07:19:33;;;;;;;6.28;2.53;;;;;;;;;;4450759;32;20272;-52
2022/04/09 07:21:59;;;;;;;9.52;2.85;;;;;;;;;;4450539;32;20287;-54
2022/04/09 07:24:24;;;;;;;6.50;2.70;;;;;;;;;;4450250;32;20410;-53
2022/04/09 07:26:50;;;;;;;8.73;2.53;;;;;;;;;;4450739;32;20246;-53
2022/04/09 07:29:16;;;;;;;6.62;2.53;;;;;;;;;;4454540;32;20690;-53
2022/04/09 07:31:42;;;;;;;5.90;2.58;;;;;;;;;;4459890;32;20310;-53
2022/04/09 07:34:07;;;;;;;5.25;2.05;;;;;;;;;;4450677;32;20577;-53
2022/04/09 07:36:33;;;;;;;7.37;3.00;;;;;;;;;;4449774;32;20283;-53
2022/04/09 07:38:59;;;;;;;4.12;2.50;;;;;;;;;;4449532;32;20633;-53
2022/04/09 07:41:24;;;;;;;8.68;2.87;;;;;;;;;;4450311;32;20235;-53
2022/04/09 07:43:50;;;;;;;9.77;2.92;;;;;;;;;;4450476;32;20219;-53
2022/04/09 07:46:15;;;;;;;4.82;2.20;;;;;;;;;;4450093;32;20291;-53
2022/04/09 07:48:41;;;;;;;4.43;2.55;;;;;;;;;;4451535;32;20545;-52
2022/04/09 07:51:07;;;;;;;14.18;10.45;;;;;;;;;;4450557;32;20311;-52
2022/04/09 07:53:32;;;;;;;4.18;2.50;;;;;;;;;;4450305;32;20298;-53
2022/04/09 07:55:58;;;;;;;6.50;1.70;;;;;;;;;;4450175;32;20303;-51
2022/04/09 07:58:23;;;;;;;2.58;1.70;;;;;;;;;;4449093;32;20636;-53
2022/04/09 08:00:49;;;;;;;5.30;1.85;;;;;;;;;;4450321;32;20684;-54
2022/04/09 08:03:15;;;;;;;1.80;1.05;;;;;;;;;;4449997;32;20275;-53
2022/04/09 08:05:41;;;;;;;3.28;1.05;;;;;;;;;;4453832;32;20299;-54
2022/04/09 08:08:08;;;;;;;5.53;1.58;;;;;;;;;;4449800;32;20216;-53
2022/04/09 08:10:34;;;;;;;3.05;1.50;;;;;;;;;;4450058;32;20282;-53
2022/04/09 08:13:00;;;;;;;5.57;1.83;;;;;;;;;;4449988;32;20220;-53
2022/04/09 08:15:25;;;;;;;4.22;1.70;;;;;;;;;;4449739;32;20763;-54
2022/04/09 08:17:54;;;;;;;5.35;1.62;;;;;;;;;;4449491;32;20228;-54
2022/04/09 08:20:21;;;;;;;3.15;1.48;;;;;;;;;;4449607;32;20234;-54
2022/04/09 08:22:47;;;;;;;3.62;1.52;;;;;;;;;;4449652;32;20216;-53
2022/04/09 08:25:12;;;;;;;5.60;2.17;;;;;;;;;;4448496;32;20601;-55
2022/04/09 08:27:38;;;;;;;4.65;2.20;;;;;;;;;;4435628;32;20232;-54
2022/04/09 08:30:07;;;;;;;3.58;1.40;;;;;;;;;;4458804;32;20271;-54
2022/04/09 08:32:33;;;;;;;4.25;1.67;;;;;;;;;;4453368;32;20247;-53
2022/04/09 08:35:00;;;;;;;4.60;1.92;;;;;;;;;;4449894;32;20607;-53
2022/04/09 08:37:25;;;;;;;5.60;1.85;;;;;;;;;;4449339;32;20351;-53
2022/04/09 08:39:51;;;;;;;5.03;2.37;;;;;;;;;;4449944;32;20314;-53
2022/04/09 08:42:17;;;;;;;12.05;2.40;;;;;;;;;;4449220;32;20212;-54
2022/04/09 08:44:42;;;;;;;4.15;1.70;;;;;;;;;;4449659;32;20341;-54
2022/04/09 08:47:12;;;;;;;5.82;1.85;;;;;;;;;;4463067;32;20235;-53
2022/04/09 08:49:40;;;;;;;9.52;1.92;;;;;;;;;;4465375;32;20243;-53
2022/04/09 08:52:08;;;;;;;5.90;1.62;;;;;;;;;;4457314;32;20292;-53
2022/04/09 08:54:36;;;;;;;6.15;2.35;;;;;;;;;;4449162;32;20208;-53
2022/04/09 08:57:02;;;;;;;4.28;1.50;;;;;;;;;;4447821;32;20232;-53
2022/04/09 08:59:27;;;;;;;6.10;2.78;;;;;;;;;;4449223;32;20338;-55
2022/04/09 09:01:53;;;;;;;7.35;1.60;;;;;;;;;;4449343;32;20264;-53
2022/04/09 09:04:19;;;;;;;2.28;1.50;;;;;;;;;;4449272;32;20255;-54
2022/04/09 09:06:45;;;;;;;4.28;2.37;;;;;;;;;;4448717;32;20288;-54
2022/04/09 09:09:29;;;;;;;4.53;2.08;;;;;;;;;;4447944;32;20572;-54
2022/04/09 09:11:55;;;;;;;6.40;1.73;;;;;;;;;;4449168;32;20203;-54
2022/04/09 09:14:44;;;;;;;4.28;2.28;;;;;;;;;;4449044;32;20302;-53
2022/04/09 09:17:11;;;;;;;9.50;2.42;;;;;;;;;;4448299;32;20193;-53
2022/04/09 09:19:48;;;;;;;5.57;1.65;;;;;;;;;;4448750;32;20252;-53
2022/04/09 09:22:14;;;;;;;4.47;2.08;;;;;;;;;;4448745;32;20208;-54
2022/04/09 09:24:40;;;;;;;4.70;2.30;;;;;;;;;;4448984;32;20283;-53
2022/04/09 09:27:06;;;;;;;3.28;1.58;;;;;;;;;;4448493;32;20648;-54
2022/04/09 09:29:33;;;;;;;5.85;2.10;;;;;;;;;;4448581;32;20350;-54
2022/04/09 09:32:04;;;;;;;3.72;1.85;;;;;;;;;;4450235;32;20215;-54
2022/04/09 09:34:30;;;;;;;6.50;2.22;;;;;;;;;;4448539;32;20257;-54
2022/04/09 09:36:56;;;;;;;8.15;2.22;;;;;;;;;;4448587;32;20205;-53
2022/04/09 09:39:23;;;;;;;5.62;1.70;;;;;;;;;;4448371;32;20469;-53
2022/04/09 09:41:57;;;;;;;5.37;1.90;;;;;;;;;;4446225;32;20307;-53
2022/04/09 09:44:27;;;;;;;3.03;1.12;;;;;;;;;;4448528;32;20349;-53
2022/04/09 09:46:54;;;;;;;4.53;1.73;;;;;;;;;;4460872;32;20866;-53
2022/04/09 09:49:25;;;;;;;5.70;1.58;;;;;;;;;;4451296;32;20266;-53
2022/04/09 09:52:07;;;;;;;2.97;1.37;;;;;;;;;;4447321;32;20579;-53
2022/04/09 09:54:32;;;;;;;2.67;1.37;;;;;;;;;;4447239;32;20279;-54
2022/04/09 09:57:00;;;;;;;4.07;1.67;;;;;;;;;;4447345;32;20204;-54
2022/04/09 09:59:27;;;;;;;6.07;2.40;;;;;;;;;;4447617;32;20365;-54
2022/04/09 10:01:54;;;;;;;4.90;1.85;;;;;;;;;;4446435;32;20777;-53
2022/04/09 10:04:20;;;;;;;7.93;2.33;;;;;;;;;;4448177;32;20290;-53
2022/04/09 10:06:46;;;;;;;9.98;1.90;;;;;;;;;;4450919;32;20216;-53
2022/04/09 10:09:17;;;;;;;4.28;1.80;;;;;;;;;;4447543;32;20315;-54
2022/04/09 10:11:47;;;;;;;3.22;1.00;;;;;;;;;;4446295;32;20615;-54
2022/04/09 10:14:14;;;;;;;2.42;1.23;;;;;;;;;;4447642;32;20323;-54
2022/04/09 10:16:43;;;;;;;3.45;1.20;;;;;;;;;;4447221;32;20269;-55
2022/04/09 10:19:10;;;;;;;3.72;1.42;;;;;;;;;;4446984;32;20250;-55
2022/04/09 10:21:40;;;;;;;9.20;1.75;;;;;;;;;;4446406;32;20429;-54
2022/04/09 10:24:14;;;;;;;6.03;1.98;;;;;;;;;;4444029;32;21098;-54
2022/04/09 10:26:41;;;;;;;3.08;1.25;;;;;;;;;;4445196;32;20556;-55
2022/04/09 10:29:08;;;;;;;5.93;1.10;;;;;;;;;;4448686;32;20323;-54
2022/04/09 10:31:39;;;;;;;15.73;1.25;;;;;;;;;;4448207;32;20703;-54
2022/04/09 10:34:12;;;;;;;6.10;1.60;;;;;;;;;;4448748;32;20228;-54
2022/04/09 10:36:40;;;;;;;3.10;1.08;;;;;;;;;;4448353;32;20781;-55
2022/04/09 10:39:25;;;;;;;3.33;1.20;;;;;;;;;;4449818;32;20311;-54
2022/04/09 10:41:55;;;;;;;7.20;1.70;;;;;;;;;;4450298;32;20515;-54
2022/04/09 10:44:45;;;;;;;5.43;1.30;;;;;;;;;;4454474;32;20231;-53
2022/04/09 10:47:14;;;;;;;4.93;1.48;;;;;;;;;;4451370;32;20204;-53
2022/04/09 10:49:40;;;;;;;12.32;1.67;;;;;;;;;;4448385;32;20224;-53
2022/04/09 10:52:11;;;;;;;5.28;2.33;;;;;;;;;;4449543;32;20556;-54
2022/04/09 10:54:38;;;;;;;4.72;1.40;;;;;;;;;;4450832;32;20234;-53
2022/04/09 10:57:10;;;;;;;4.07;1.05;;;;;;;;;;4450088;32;20235;-53
2022/04/09 10:59:37;;;;;;;3.85;1.37;;;;;;;;;;4458142;32;20315;-53
2022/04/09 11:02:04;;;;;;;7.62;1.80;;;;;;;;;;4449827;32;20414;-53
2022/04/09 11:04:34;;;;;;;4.85;1.17;;;;;;;;;;4451538;32;20216;-54
2022/04/09 11:07:16;;;;;;;9.30;1.58;;;;;;;;;;4451853;32;20221;-53
2022/04/09 11:09:57;;;;;;;3.83;1.27;;;;;;;;;;4451058;32;20253;-53
2022/04/09 11:12:29;;;;;;;3.05;1.02;;;;;;;;;;4465149;32;20216;-53
2022/04/09 11:14:55;;;;;;;2.35;1.33;;;;;;;;;;4465129;32;20283;-53
2022/04/09 11:17:30;;;;;;;2.85;1.65;;;;;;;;;;4465095;32;20268;-53
2022/04/09 11:20:01;;;;;;;5.62;1.30;;;;;;;;;;4449686;32;20189;-54
2022/04/09 11:22:37;;;;;;;5.43;1.37;;;;;;;;;;4447914;32;20243;-53
2022/04/09 11:25:05;;;;;;;4.57;1.08;;;;;;;;;;4450718;32;20708;-53
2022/04/09 11:27:31;;;;;;;4.65;1.33;;;;;;;;;;4458659;32;20220;-53
2022/04/09 11:29:57;;;;;;;4.12;1.40;;;;;;;;;;4453935;32;20385;-53
2022/04/09 11:32:24;;;;;;;11.15;1.45;;;;;;;;;;4448591;32;20426;-54
2022/04/09 11:35:00;;;;;;;7.32;1.65;;;;;;;;;;4448923;32;20246;-53
2022/04/09 11:37:31;;;;;;;4.40;2.33;;;;;;;;;;4463617;32;20712;-53
2022/04/09 11:40:03;;;;;;;4.75;2.00;;;;;;;;;;4463858;32;20188;-53
2022/04/09 11:42:28;;;;;;;4.80;0.93;;;;;;;;;;4453386;32;20724;-52
2022/04/09 11:44:54;;;;;;;3.37;1.00;;;;;;;;;;4453157;32;20326;-53
2022/04/09 11:47:24;;;;;;;5.32;1.20;;;;;;;;;;4447556;32;20537;-53
2022/04/09 11:49:52;;;;;;;4.30;1.75;;;;;;;;;;4450138;32;20597;-52
2022/04/09 11:52:29;;;;;;;9.43;1.58;;;;;;;;;;4463103;32;20351;-54
2022/04/09 11:54:55;;;;;;;4.12;1.12;;;;;;;;;;4462613;32;20605;-53
2022/04/09 11:57:22;;;;;;;4.25;1.45;;;;;;;;;;4462815;32;20284;-53
2022/04/09 11:59:52;;;;;;;3.83;1.42;;;;;;;;;;4463090;32;20277;-54
2022/04/09 12:02:26;;;;;;;3.05;1.52;;;;;;;;;;4464067;32;20279;-53
2022/04/09 12:04:54;;;;;;;5.65;1.87;;;;;;;;;;4459059;32;20250;-53
2022/04/09 12:07:20;;;;;;;3.15;1.65;;;;;;;;;;4445839;32;20266;-53
2022/04/09 12:09:46;;;;;;;4.62;1.23;;;;;;;;;;4447114;32;20339;-54
2022/04/09 12:12:12;;;;;;;5.65;1.70;;;;;;;;;;4446976;32;20307;-54
2022/04/09 12:14:40;;;;;;;3.03;1.40;;;;;;;;;;4445825;32;20311;-56
2022/04/09 12:17:13;;;;;;;4.62;1.55;;;;;;;;;;4445651;32;20733;-55
2022/04/09 12:19:43;;;;;;;5.57;1.60;;;;;;;;;;4446668;32;20577;-54
2022/04/09 12:22:19;;;;;;;5.28;1.25;;;;;;;;;;4449620;32;20288;-54
2022/04/09 12:24:46;;;;;;;4.72;1.25;;;;;;;;;;4448317;32;20700;-54
2022/04/09 12:27:11;;;;;;;4.12;1.50;;;;;;;;;;4447183;32;20280;-55
2022/04/09 12:29:48;;;;;;;4.47;1.37;;;;;;;;;;4448442;32;20300;-54
2022/04/09 12:32:24;;;;;;;6.95;2.17;;;;;;;;;;4448298;32;20208;-53
2022/04/09 12:34:58;;;;;;;8.48;1.60;;;;;;;;;;4447247;32;20216;-53
2022/04/09 12:37:24;;;;;;;3.83;1.48;;;;;;;;;;4447996;32;20291;-54
2022/04/09 12:39:51;;;;;;;10.30;1.50;;;;;;;;;;4448157;32;20366;-56
2022/04/09 12:42:29;;;;;;;4.80;1.30;;;;;;;;;;4448158;32;20279;-54
2022/04/09 12:45:11;;;;;;;10.50;1.92;;;;;;;;;;4447739;32;20653;-54
2022/04/09 12:47:38;;;;;;;7.05;1.40;;;;;;;;;;4450733;32;20319;-54
2022/04/09 12:50:04;;;;;;;6.12;1.55;;;;;;;;;;4463625;32;20192;-55
2022/04/09 12:52:31;;;;;;;7.30;1.48;;;;;;;;;;4463515;32;20251;-54
2022/04/09 12:54:56;;;;;;;3.75;1.87;;;;;;;;;;4463621;32;20581;-54
2022/04/09 12:57:22;;;;;;;4.68;1.23;;;;;;;;;;4463529;32;20387;-54
2022/04/09 12:59:48;;;;;;;2.58;1.30;;;;;;;;;;4463483;32;20283;-55
2022/04/09 13:02:13;;;;;;;6.07;1.40;;;;;;;;;;4463364;32;20211;-55
2022/04/09 13:04:39;;;;;;;1.77;1.02;;;;;;;;;;4463310;32;20590;-54
2022/04/09 13:07:05;;;;;;;7.93;1.27;;;;;;;;;;4449280;32;20268;-54
2022/04/09 13:09:30;;;;;;;4.43;1.27;;;;;;;;;;4447935;32;20656;-54
2022/04/09 13:11:57;;;;;;;7.07;1.23;;;;;;;;;;4447849;32;20208;-53
2022/04/09 13:14:22;;;;;;;2.87;1.15;;;;;;;;;;4447936;32;20323;-52
2022/04/09 13:16:49;;;;;;;1.83;1.15;;;;;;;;;;4447543;32;20284;-53
2022/04/09 13:19:14;;;;;;;6.12;1.42;;;;;;;;;;4447925;32;20368;-53
2022/04/09 13:21:40;;;;;;;10.88;1.83;;;;;;;;;;4447551;32;20645;-54
2022/04/09 13:24:06;;;;;;;9.65;1.62;;;;;;;;;;4447783;32;20356;-54
2022/04/09 13:26:32;;;;;;;7.45;1.35;;;;;;;;;;4446617;32;20258;-52
2022/04/09 13:28:58;;;;;;;5.75;1.40;;;;;;;;;;4447852;32;20864;-52
2022/04/09 13:31:28;;;;;;;11.60;1.23;;;;;;;;;;4447623;32;20200;-53
2022/04/09 13:33:54;;;;;;;4.57;1.15;;;;;;;;;;4457221;32;20677;-53
2022/04/09 13:36:20;;;;;;;2.87;1.52;;;;;;;;;;4463406;32;20299;-53
2022/04/09 13:38:45;;;;;;;9.23;1.67;;;;;;;;;;4463376;32;20548;-54
2022/04/09 13:41:16;;;;;;;4.37;1.62;;;;;;;;;;4463294;32;20414;-53
2022/04/09 13:43:41;;;;;;;9.98;1.50;;;;;;;;;;4462806;32;20254;-52
2022/04/09 13:46:07;;;;;;;2.30;1.00;;;;;;;;;;4457159;32;20310;-52
2022/04/09 13:48:32;;;;;;;5.12;1.45;;;;;;;;;;4453632;32;20327;-53
2022/04/09 13:50:58;;;;;;;5.80;1.45;;;;;;;;;;4447694;32;20282;-52
2022/04/09 13:53:23;;;;;;;3.33;1.52;;;;;;;;;;4447174;32;20232;-52
2022/04/09 13:55:49;;;;;;;6.75;1.60;;;;;;;;;;4447392;32;20699;-53
2022/04/09 13:58:14;;;;;;;5.72;1.20;;;;;;;;;;4447339;32;20254;-55
2022/04/09 14:00:40;;;;;;;3.90;1.92;;;;;;;;;;4447200;32;20304;-55
2022/04/09 14:03:06;;;;;;;3.58;1.65;;;;;;;;;;4446782;32;20449;-55
2022/04/09 14:05:32;;;;;;;3.40;1.50;;;;;;;;;;4447183;32;20413;-52
2022/04/09 14:07:57;;;;;;;3.95;1.83;;;;;;;;;;4446992;32;20255;-53
2022/04/09 14:10:23;;;;;;;2.67;1.15;;;;;;;;;;4447588;32;20271;-53
2022/04/09 14:12:48;;;;;;;8.05;3.75;;;;;;;;;;4452238;32;20224;-53
2022/04/09 14:15:14;;;;;;;5.22;1.98;;;;;;;;;;4448818;32;20322;-52
2022/04/09 14:17:39;;;;;;;4.85;1.65;;;;;;;;;;4447164;32;20260;-53
2022/04/09 14:20:05;;;;;;;3.62;1.33;;;;;;;;;;4447209;32;20252;-53
2022/04/09 14:22:31;;;;;;;4.82;1.37;;;;;;;;;;4447056;32;20343;-54
2022/04/09 14:24:56;;;;;;;2.80;1.20;;;;;;;;;;4445678;32;20232;-54
2022/04/09 14:27:22;;;;;;;9.02;1.45;;;;;;;;;;4447485;32;20323;-54
2022/04/09 14:29:48;;;;;;;2.00;1.33;;;;;;;;;;4447002;32;20279;-54
2022/04/09 14:32:13;;;;;;;5.25;1.20;;;;;;;;;;4447099;32;20263;-55
2022/04/09 14:34:38;;;;;;;3.53;1.10;;;;;;;;;;4446980;32;20280;-55
2022/04/09 14:37:04;;;;;;;6.62;1.67;;;;;;;;;;4446972;32;20196;-55